sensor_id;sensor_type;location;lat;lon;timestamp;P1;durP1;ratioP1;P2;durP2;ratioP2
23506;SDS011;11930;53.076;18.250;2023-07-20T00:02:15;8.50;;;5.30;;
23506;SDS011;11930;53.076;18.250;2023-07-20T00:04:41;7.83;;;5.20;;
23506;SDS011;11930;53.076;18.250;2023-07-20T00:07:07;8.60;;;5.20;;
23506;SDS011;11930;53.076;18.250;2023-07-20T00:09:33;8.40;;;5.63;;
23506;SDS011;11930;53.076;18.250;2023-07-20T00:11:59;6.90;;;5.20;;
23506;SDS011;11930;53.076;18.250;2023-07-20T00:14:25;7.67;;;5.00;;
23506;SDS011;11930;53.076;18.250;2023-07-20T00:16:51;8.53;;;5.23;;
23506;SDS011;11930;53.076;18.250;2023-07-20T00:19:24;9.43;;;4.83;;
23506;SDS011;11930;53.076;18.250;2023-07-20T00:21:51;6.40;;;4.60;;
23506;SDS011;11930;53.076;18.250;2023-07-20T00:24:18;9.17;;;5.07;;
23506;SDS011;11930;53.076;18.250;2023-07-20T00:26:44;9.10;;;5.07;;
23506;SDS011;11930;53.076;18.250;2023-07-20T00:29:10;7.23;;;5.13;;
23506;SDS011;11930;53.076;18.250;2023-07-20T00:31:36;6.93;;;4.43;;
23506;SDS011;11930;53.076;18.250;2023-07-20T00:34:03;6.73;;;4.87;;
23506;SDS011;11930;53.076;18.250;2023-07-20T00:36:33;7.93;;;4.73;;
23506;SDS011;11930;53.076;18.250;2023-07-20T00:39:01;7.63;;;5.00;;
23506;SDS011;11930;53.076;18.250;2023-07-20T00:41:28;7.30;;;4.97;;
23506;SDS011;11930;53.076;18.250;2023-07-20T00:43:57;6.77;;;5.10;;
23506;SDS011;11930;53.076;18.250;2023-07-20T00:46:23;8.30;;;5.60;;
23506;SDS011;11930;53.076;18.250;2023-07-20T00:48:50;7.73;;;5.40;;
23506;SDS011;11930;53.076;18.250;2023-07-20T00:51:18;7.73;;;5.60;;
23506;SDS011;11930;53.076;18.250;2023-07-20T00:53:45;8.07;;;5.40;;
23506;SDS011;11930;53.076;18.250;2023-07-20T00:56:11;7.50;;;5.63;;
23506;SDS011;11930;53.076;18.250;2023-07-20T00:58:37;6.77;;;4.97;;
23506;SDS011;11930;53.076;18.250;2023-07-20T01:01:03;7.20;;;5.40;;
23506;SDS011;11930;53.076;18.250;2023-07-20T01:03:30;6.53;;;5.20;;
23506;SDS011;11930;53.076;18.250;2023-07-20T01:06:03;6.20;;;4.80;;
23506;SDS011;11930;53.076;18.250;2023-07-20T01:08:33;6.30;;;4.80;;
23506;SDS011;11930;53.076;18.250;2023-07-20T01:11:09;7.50;;;4.90;;
23506;SDS011;11930;53.076;18.250;2023-07-20T01:13:42;7.53;;;5.17;;
23506;SDS011;11930;53.076;18.250;2023-07-20T01:16:09;7.97;;;5.23;;
23506;SDS011;11930;53.076;18.250;2023-07-20T01:18:35;8.07;;;5.33;;
23506;SDS011;11930;53.076;18.250;2023-07-20T01:21:05;7.10;;;5.00;;
23506;SDS011;11930;53.076;18.250;2023-07-20T01:29:11;6.80;;;4.90;;
23506;SDS011;11930;53.076;18.250;2023-07-20T01:32:03;9.13;;;5.20;;
23506;SDS011;11930;53.076;18.250;2023-07-20T01:34:32;8.67;;;5.40;;
23506;SDS011;11930;53.076;18.250;2023-07-20T01:37:02;6.70;;;5.03;;
23506;SDS011;11930;53.076;18.250;2023-07-20T01:39:30;7.03;;;4.73;;
23506;SDS011;11930;53.076;18.250;2023-07-20T01:41:58;7.33;;;5.07;;
23506;SDS011;11930;53.076;18.250;2023-07-20T01:44:24;7.27;;;5.00;;
23506;SDS011;11930;53.076;18.250;2023-07-20T01:46:52;6.90;;;5.13;;
23506;SDS011;11930;53.076;18.250;2023-07-20T01:49:18;7.30;;;5.20;;
23506;SDS011;11930;53.076;18.250;2023-07-20T01:51:44;7.97;;;5.27;;
23506;SDS011;11930;53.076;18.250;2023-07-20T01:54:10;8.20;;;5.03;;
23506;SDS011;11930;53.076;18.250;2023-07-20T01:56:36;8.00;;;4.95;;
23506;SDS011;11930;53.076;18.250;2023-07-20T01:59:03;7.55;;;5.35;;
23506;SDS011;11930;53.076;18.250;2023-07-20T02:01:29;7.32;;;4.97;;
23506;SDS011;11930;53.076;18.250;2023-07-20T02:03:55;7.28;;;5.10;;
23506;SDS011;11930;53.076;18.250;2023-07-20T02:06:21;6.57;;;4.88;;
23506;SDS011;11930;53.076;18.250;2023-07-20T02:08:48;7.50;;;5.03;;
23506;SDS011;11930;53.076;18.250;2023-07-20T02:11:14;7.32;;;5.13;;
23506;SDS011;11930;53.076;18.250;2023-07-20T02:13:40;8.37;;;5.10;;
23506;SDS011;11930;53.076;18.250;2023-07-20T02:16:06;9.47;;;6.00;;
23506;SDS011;11930;53.076;18.250;2023-07-20T02:18:33;7.35;;;5.75;;
23506;SDS011;11930;53.076;18.250;2023-07-20T02:21:00;7.63;;;5.45;;
23506;SDS011;11930;53.076;18.250;2023-07-20T02:23:26;6.10;;;5.28;;
23506;SDS011;11930;53.076;18.250;2023-07-20T02:25:52;10.13;;;5.60;;
23506;SDS011;11930;53.076;18.250;2023-07-20T02:28:18;7.45;;;5.38;;
23506;SDS011;11930;53.076;18.250;2023-07-20T02:30:44;6.95;;;5.10;;
23506;SDS011;11930;53.076;18.250;2023-07-20T02:33:11;7.93;;;5.47;;
23506;SDS011;11930;53.076;18.250;2023-07-20T02:35:37;7.35;;;5.05;;
23506;SDS011;11930;53.076;18.250;2023-07-20T02:38:03;8.30;;;5.32;;
23506;SDS011;11930;53.076;18.250;2023-07-20T02:40:29;6.95;;;5.20;;
23506;SDS011;11930;53.076;18.250;2023-07-20T02:42:55;9.47;;;5.50;;
23506;SDS011;11930;53.076;18.250;2023-07-20T02:45:21;8.40;;;5.47;;
23506;SDS011;11930;53.076;18.250;2023-07-20T02:47:47;7.13;;;4.90;;
23506;SDS011;11930;53.076;18.250;2023-07-20T02:50:13;9.05;;;6.03;;
23506;SDS011;11930;53.076;18.250;2023-07-20T02:52:40;7.60;;;5.30;;
23506;SDS011;11930;53.076;18.250;2023-07-20T02:55:06;6.50;;;5.27;;
23506;SDS011;11930;53.076;18.250;2023-07-20T02:57:33;8.02;;;5.88;;
23506;SDS011;11930;53.076;18.250;2023-07-20T02:59:59;8.40;;;6.07;;
23506;SDS011;11930;53.076;18.250;2023-07-20T03:02:25;8.65;;;5.68;;
23506;SDS011;11930;53.076;18.250;2023-07-20T03:04:51;8.87;;;6.10;;
23506;SDS011;11930;53.076;18.250;2023-07-20T03:07:17;8.97;;;5.17;;
23506;SDS011;11930;53.076;18.250;2023-07-20T03:09:44;8.07;;;5.38;;
23506;SDS011;11930;53.076;18.250;2023-07-20T03:12:10;7.45;;;5.35;;
23506;SDS011;11930;53.076;18.250;2023-07-20T03:14:37;8.32;;;6.00;;
23506;SDS011;11930;53.076;18.250;2023-07-20T03:17:02;8.00;;;5.60;;
23506;SDS011;11930;53.076;18.250;2023-07-20T03:19:30;7.15;;;5.80;;
23506;SDS011;11930;53.076;18.250;2023-07-20T03:21:56;7.28;;;5.07;;
23506;SDS011;11930;53.076;18.250;2023-07-20T03:24:22;8.50;;;5.63;;
23506;SDS011;11930;53.076;18.250;2023-07-20T03:26:49;10.32;;;5.53;;
23506;SDS011;11930;53.076;18.250;2023-07-20T03:29:18;8.48;;;5.47;;
23506;SDS011;11930;53.076;18.250;2023-07-20T03:31:46;10.63;;;6.50;;
23506;SDS011;11930;53.076;18.250;2023-07-20T03:34:12;9.43;;;5.63;;
23506;SDS011;11930;53.076;18.250;2023-07-20T03:36:38;10.27;;;5.75;;
23506;SDS011;11930;53.076;18.250;2023-07-20T03:39:04;9.02;;;6.15;;
23506;SDS011;11930;53.076;18.250;2023-07-20T03:41:30;10.00;;;6.10;;
23506;SDS011;11930;53.076;18.250;2023-07-20T03:43:56;8.38;;;6.40;;
23506;SDS011;11930;53.076;18.250;2023-07-20T03:46:22;8.30;;;6.00;;
23506;SDS011;11930;53.076;18.250;2023-07-20T03:48:49;9.45;;;6.75;;
23506;SDS011;11930;53.076;18.250;2023-07-20T03:51:14;9.52;;;6.72;;
23506;SDS011;11930;53.076;18.250;2023-07-20T03:53:41;13.32;;;6.85;;
23506;SDS011;11930;53.076;18.250;2023-07-20T03:56:07;8.77;;;6.88;;
23506;SDS011;11930;53.076;18.250;2023-07-20T03:58:34;11.65;;;7.25;;
23506;SDS011;11930;53.076;18.250;2023-07-20T04:00:59;13.48;;;6.82;;
23506;SDS011;11930;53.076;18.250;2023-07-20T04:03:26;7.85;;;6.22;;
23506;SDS011;11930;53.076;18.250;2023-07-20T04:05:53;8.38;;;6.80;;
23506;SDS011;11930;53.076;18.250;2023-07-20T04:08:22;9.32;;;6.63;;
23506;SDS011;11930;53.076;18.250;2023-07-20T04:10:51;10.02;;;6.43;;
23506;SDS011;11930;53.076;18.250;2023-07-20T04:13:17;9.05;;;6.60;;
23506;SDS011;11930;53.076;18.250;2023-07-20T04:15:44;10.75;;;7.00;;
23506;SDS011;11930;53.076;18.250;2023-07-20T04:18:10;9.45;;;6.53;;
23506;SDS011;11930;53.076;18.250;2023-07-20T04:20:36;10.70;;;7.22;;
23506;SDS011;11930;53.076;18.250;2023-07-20T04:23:02;11.30;;;7.43;;
23506;SDS011;11930;53.076;18.250;2023-07-20T04:25:29;8.27;;;6.85;;
23506;SDS011;11930;53.076;18.250;2023-07-20T04:28:05;10.82;;;7.80;;
23506;SDS011;11930;53.076;18.250;2023-07-20T04:30:35;11.95;;;7.43;;
23506;SDS011;11930;53.076;18.250;2023-07-20T04:33:05;13.15;;;7.72;;
23506;SDS011;11930;53.076;18.250;2023-07-20T04:35:45;11.18;;;7.95;;
23506;SDS011;11930;53.076;18.250;2023-07-20T04:38:14;11.68;;;8.05;;
23506;SDS011;11930;53.076;18.250;2023-07-20T04:40:46;10.93;;;8.05;;
23506;SDS011;11930;53.076;18.250;2023-07-20T04:43:15;11.45;;;7.95;;
23506;SDS011;11930;53.076;18.250;2023-07-20T04:45:42;10.48;;;7.50;;
23506;SDS011;11930;53.076;18.250;2023-07-20T04:48:10;8.95;;;7.13;;
23506;SDS011;11930;53.076;18.250;2023-07-20T04:50:47;9.75;;;7.75;;
23506;SDS011;11930;53.076;18.250;2023-07-20T04:53:14;11.38;;;7.97;;
23506;SDS011;11930;53.076;18.250;2023-07-20T04:55:46;9.90;;;7.53;;
23506;SDS011;11930;53.076;18.250;2023-07-20T04:58:18;10.57;;;7.00;;
23506;SDS011;11930;53.076;18.250;2023-07-20T05:00:45;10.00;;;7.38;;
23506;SDS011;11930;53.076;18.250;2023-07-20T05:03:11;10.88;;;7.72;;
23506;SDS011;11930;53.076;18.250;2023-07-20T05:05:37;9.30;;;6.97;;
23506;SDS011;11930;53.076;18.250;2023-07-20T05:08:04;9.60;;;7.95;;
23506;SDS011;11930;53.076;18.250;2023-07-20T05:10:30;13.07;;;7.93;;
23506;SDS011;11930;53.076;18.250;2023-07-20T05:12:58;11.60;;;7.65;;
23506;SDS011;11930;53.076;18.250;2023-07-20T05:15:24;10.73;;;7.25;;
23506;SDS011;11930;53.076;18.250;2023-07-20T05:17:52;12.93;;;7.25;;
23506;SDS011;11930;53.076;18.250;2023-07-20T05:20:19;9.85;;;8.23;;
23506;SDS011;11930;53.076;18.250;2023-07-20T05:22:46;12.15;;;8.45;;
23506;SDS011;11930;53.076;18.250;2023-07-20T05:25:12;9.43;;;7.85;;
23506;SDS011;11930;53.076;18.250;2023-07-20T05:27:38;11.75;;;7.47;;
23506;SDS011;11930;53.076;18.250;2023-07-20T05:30:05;8.52;;;6.93;;
23506;SDS011;11930;53.076;18.250;2023-07-20T05:32:33;12.60;;;7.78;;
23506;SDS011;11930;53.076;18.250;2023-07-20T05:34:59;9.82;;;7.35;;
23506;SDS011;11930;53.076;18.250;2023-07-20T05:37:25;10.73;;;7.30;;
23506;SDS011;11930;53.076;18.250;2023-07-20T05:39:51;11.60;;;7.10;;
23506;SDS011;11930;53.076;18.250;2023-07-20T05:42:17;8.95;;;6.78;;
23506;SDS011;11930;53.076;18.250;2023-07-20T05:44:43;13.10;;;7.82;;
23506;SDS011;11930;53.076;18.250;2023-07-20T05:47:09;9.25;;;7.25;;
23506;SDS011;11930;53.076;18.250;2023-07-20T05:49:35;12.73;;;7.78;;
23506;SDS011;11930;53.076;18.250;2023-07-20T05:52:01;9.68;;;7.78;;
23506;SDS011;11930;53.076;18.250;2023-07-20T05:54:27;9.52;;;7.88;;
23506;SDS011;11930;53.076;18.250;2023-07-20T05:56:54;11.95;;;9.85;;
23506;SDS011;11930;53.076;18.250;2023-07-20T05:59:20;10.43;;;8.13;;
23506;SDS011;11930;53.076;18.250;2023-07-20T06:01:46;10.20;;;8.05;;
23506;SDS011;11930;53.076;18.250;2023-07-20T06:04:14;13.70;;;8.18;;
23506;SDS011;11930;53.076;18.250;2023-07-20T06:06:40;12.80;;;7.85;;
23506;SDS011;11930;53.076;18.250;2023-07-20T06:09:06;16.17;;;8.45;;
23506;SDS011;11930;53.076;18.250;2023-07-20T06:11:39;10.45;;;7.35;;
23506;SDS011;11930;53.076;18.250;2023-07-20T06:14:05;11.70;;;7.05;;
23506;SDS011;11930;53.076;18.250;2023-07-20T06:16:31;9.60;;;6.72;;
23506;SDS011;11930;53.076;18.250;2023-07-20T06:18:58;9.60;;;5.82;;
23506;SDS011;11930;53.076;18.250;2023-07-20T06:21:25;9.15;;;5.78;;
23506;SDS011;11930;53.076;18.250;2023-07-20T06:23:51;8.70;;;7.18;;
23506;SDS011;11930;53.076;18.250;2023-07-20T06:26:18;9.52;;;6.60;;
23506;SDS011;11930;53.076;18.250;2023-07-20T06:28:45;9.13;;;6.75;;
23506;SDS011;11930;53.076;18.250;2023-07-20T06:31:11;11.00;;;6.80;;
23506;SDS011;11930;53.076;18.250;2023-07-20T06:33:37;10.02;;;7.03;;
23506;SDS011;11930;53.076;18.250;2023-07-20T06:36:03;8.90;;;6.75;;
23506;SDS011;11930;53.076;18.250;2023-07-20T06:38:29;11.70;;;6.63;;
23506;SDS011;11930;53.076;18.250;2023-07-20T06:40:56;7.28;;;5.78;;
23506;SDS011;11930;53.076;18.250;2023-07-20T06:43:25;9.38;;;5.22;;
23506;SDS011;11930;53.076;18.250;2023-07-20T06:45:52;8.20;;;5.65;;
23506;SDS011;11930;53.076;18.250;2023-07-20T06:48:24;7.53;;;5.85;;
23506;SDS011;11930;53.076;18.250;2023-07-20T06:50:52;6.60;;;4.80;;
23506;SDS011;11930;53.076;18.250;2023-07-20T06:53:19;4.75;;;3.22;;
23506;SDS011;11930;53.076;18.250;2023-07-20T06:55:55;5.78;;;3.00;;
23506;SDS011;11930;53.076;18.250;2023-07-20T06:58:27;2.90;;;2.10;;
23506;SDS011;11930;53.076;18.250;2023-07-20T07:00:53;4.30;;;3.03;;
23506;SDS011;11930;53.076;18.250;2023-07-20T07:03:19;5.50;;;3.80;;
23506;SDS011;11930;53.076;18.250;2023-07-20T07:05:49;6.38;;;3.83;;
23506;SDS011;11930;53.076;18.250;2023-07-20T07:08:22;5.03;;;3.95;;
23506;SDS011;11930;53.076;18.250;2023-07-20T07:10:49;5.93;;;4.03;;
23506;SDS011;11930;53.076;18.250;2023-07-20T07:13:16;4.97;;;3.42;;
23506;SDS011;11930;53.076;18.250;2023-07-20T07:15:42;5.72;;;3.25;;
23506;SDS011;11930;53.076;18.250;2023-07-20T07:18:08;5.32;;;2.90;;
23506;SDS011;11930;53.076;18.250;2023-07-20T07:20:37;4.60;;;2.90;;
23506;SDS011;11930;53.076;18.250;2023-07-20T07:23:10;5.35;;;3.30;;
23506;SDS011;11930;53.076;18.250;2023-07-20T07:25:36;4.72;;;3.30;;
23506;SDS011;11930;53.076;18.250;2023-07-20T07:28:02;4.53;;;3.20;;
23506;SDS011;11930;53.076;18.250;2023-07-20T07:30:28;3.88;;;2.72;;
23506;SDS011;11930;53.076;18.250;2023-07-20T07:32:54;6.43;;;2.72;;
23506;SDS011;11930;53.076;18.250;2023-07-20T07:35:20;6.20;;;3.10;;
23506;SDS011;11930;53.076;18.250;2023-07-20T07:38:05;4.93;;;2.70;;
23506;SDS011;11930;53.076;18.250;2023-07-20T07:40:32;5.43;;;2.80;;
23506;SDS011;11930;53.076;18.250;2023-07-20T07:42:58;3.88;;;2.55;;
23506;SDS011;11930;53.076;18.250;2023-07-20T07:45:27;5.80;;;2.58;;
23506;SDS011;11930;53.076;18.250;2023-07-20T07:47:53;3.58;;;2.40;;
23506;SDS011;11930;53.076;18.250;2023-07-20T07:50:19;4.03;;;2.20;;
23506;SDS011;11930;53.076;18.250;2023-07-20T07:52:45;5.10;;;2.05;;
23506;SDS011;11930;53.076;18.250;2023-07-20T07:55:12;4.55;;;2.38;;
23506;SDS011;11930;53.076;18.250;2023-07-20T07:57:43;2.88;;;2.10;;
23506;SDS011;11930;53.076;18.250;2023-07-20T08:00:26;8.05;;;2.70;;
23506;SDS011;11930;53.076;18.250;2023-07-20T08:02:52;3.60;;;2.15;;
23506;SDS011;11930;53.076;18.250;2023-07-20T08:05:18;3.33;;;2.75;;
23506;SDS011;11930;53.076;18.250;2023-07-20T08:07:44;4.78;;;2.20;;
23506;SDS011;11930;53.076;18.250;2023-07-20T08:10:11;3.85;;;2.30;;
23506;SDS011;11930;53.076;18.250;2023-07-20T08:12:39;4.53;;;2.45;;
23506;SDS011;11930;53.076;18.250;2023-07-20T08:15:11;4.07;;;2.40;;
23506;SDS011;11930;53.076;18.250;2023-07-20T08:17:41;6.28;;;2.22;;
23506;SDS011;11930;53.076;18.250;2023-07-20T08:20:10;6.43;;;2.67;;
23506;SDS011;11930;53.076;18.250;2023-07-20T08:22:40;6.75;;;2.40;;
23506;SDS011;11930;53.076;18.250;2023-07-20T08:25:07;4.10;;;2.20;;
23506;SDS011;11930;53.076;18.250;2023-07-20T08:27:34;5.90;;;2.17;;
23506;SDS011;11930;53.076;18.250;2023-07-20T08:30:01;4.35;;;2.70;;
23506;SDS011;11930;53.076;18.250;2023-07-20T08:32:27;6.93;;;2.72;;
23506;SDS011;11930;53.076;18.250;2023-07-20T08:34:54;4.15;;;2.08;;
23506;SDS011;11930;53.076;18.250;2023-07-20T08:37:20;3.13;;;2.25;;
23506;SDS011;11930;53.076;18.250;2023-07-20T08:39:47;3.53;;;2.17;;
23506;SDS011;11930;53.076;18.250;2023-07-20T08:42:14;4.68;;;2.10;;
23506;SDS011;11930;53.076;18.250;2023-07-20T08:44:41;3.35;;;1.90;;
23506;SDS011;11930;53.076;18.250;2023-07-20T08:47:18;3.88;;;2.25;;
23506;SDS011;11930;53.076;18.250;2023-07-20T08:49:44;3.85;;;1.90;;
23506;SDS011;11930;53.076;18.250;2023-07-20T08:52:33;3.88;;;1.98;;
23506;SDS011;11930;53.076;18.250;2023-07-20T08:55:00;4.95;;;2.28;;
23506;SDS011;11930;53.076;18.250;2023-07-20T08:57:28;3.35;;;1.73;;
23506;SDS011;11930;53.076;18.250;2023-07-20T08:59:58;3.38;;;1.88;;
23506;SDS011;11930;53.076;18.250;2023-07-20T09:02:35;2.22;;;1.48;;
23506;SDS011;11930;53.076;18.250;2023-07-20T09:05:27;3.38;;;2.17;;
23506;SDS011;11930;53.076;18.250;2023-07-20T09:07:54;4.43;;;2.05;;
23506;SDS011;11930;53.076;18.250;2023-07-20T09:10:21;3.83;;;2.03;;
23506;SDS011;11930;53.076;18.250;2023-07-20T09:12:48;10.18;;;2.15;;
23506;SDS011;11930;53.076;18.250;2023-07-20T09:15:14;3.47;;;1.38;;
23506;SDS011;11930;53.076;18.250;2023-07-20T09:17:48;3.28;;;1.63;;
23506;SDS011;11930;53.076;18.250;2023-07-20T09:20:20;2.65;;;1.40;;
23506;SDS011;11930;53.076;18.250;2023-07-20T09:22:50;4.10;;;1.45;;
23506;SDS011;11930;53.076;18.250;2023-07-20T09:25:19;1.65;;;1.10;;
23506;SDS011;11930;53.076;18.250;2023-07-20T09:27:49;4.10;;;1.77;;
23506;SDS011;11930;53.076;18.250;2023-07-20T09:30:16;4.75;;;1.40;;
23506;SDS011;11930;53.076;18.250;2023-07-20T09:32:46;3.88;;;1.52;;
23506;SDS011;11930;53.076;18.250;2023-07-20T09:35:14;2.55;;;1.30;;
23506;SDS011;11930;53.076;18.250;2023-07-20T09:37:41;1.88;;;1.20;;
23506;SDS011;11930;53.076;18.250;2023-07-20T09:40:36;2.33;;;1.20;;
23506;SDS011;11930;53.076;18.250;2023-07-20T09:43:07;2.22;;;1.33;;
23506;SDS011;11930;53.076;18.250;2023-07-20T09:45:41;3.05;;;1.30;;
23506;SDS011;11930;53.076;18.250;2023-07-20T09:48:08;1.73;;;1.20;;
23506;SDS011;11930;53.076;18.250;2023-07-20T09:50:50;4.35;;;1.40;;
23506;SDS011;11930;53.076;18.250;2023-07-20T09:53:17;2.25;;;1.13;;
23506;SDS011;11930;53.076;18.250;2023-07-20T09:55:44;1.90;;;1.20;;
23506;SDS011;11930;53.076;18.250;2023-07-20T09:58:11;3.63;;;1.25;;
23506;SDS011;11930;53.076;18.250;2023-07-20T10:00:41;1.67;;;1.00;;
23506;SDS011;11930;53.076;18.250;2023-07-20T10:03:14;3.03;;;0.90;;
23506;SDS011;11930;53.076;18.250;2023-07-20T10:05:46;3.55;;;1.27;;
23506;SDS011;11930;53.076;18.250;2023-07-20T10:08:15;3.72;;;1.33;;
23506;SDS011;11930;53.076;18.250;2023-07-20T10:10:44;5.07;;;2.60;;
23506;SDS011;11930;53.076;18.250;2023-07-20T10:13:14;2.55;;;1.20;;
23506;SDS011;11930;53.076;18.250;2023-07-20T10:15:46;1.70;;;1.10;;
23506;SDS011;11930;53.076;18.250;2023-07-20T10:18:38;11.20;;;6.90;;
23506;SDS011;11930;53.076;18.250;2023-07-20T10:21:42;6.35;;;5.00;;
23506;SDS011;11930;53.076;18.250;2023-07-20T10:24:14;6.40;;;4.13;;
23506;SDS011;11930;53.076;18.250;2023-07-20T10:26:47;23.80;;;14.43;;
23506;SDS011;11930;53.076;18.250;2023-07-20T10:29:19;29.17;;;19.67;;
23506;SDS011;11930;53.076;18.250;2023-07-20T10:31:46;7.25;;;6.07;;
23506;SDS011;11930;53.076;18.250;2023-07-20T10:34:12;3.45;;;2.35;;
23506;SDS011;11930;53.076;18.250;2023-07-20T10:36:44;2.67;;;1.30;;
23506;SDS011;11930;53.076;18.250;2023-07-20T10:39:27;1.90;;;0.80;;
23506;SDS011;11930;53.076;18.250;2023-07-20T10:42:00;1.98;;;1.00;;
23506;SDS011;11930;53.076;18.250;2023-07-20T10:44:29;6.70;;;3.53;;
23506;SDS011;11930;53.076;18.250;2023-07-20T10:47:02;11.60;;;8.93;;
23506;SDS011;11930;53.076;18.250;2023-07-20T10:49:34;9.23;;;6.32;;
23506;SDS011;11930;53.076;18.250;2023-07-20T10:52:21;1.83;;;1.20;;
23506;SDS011;11930;53.076;18.250;2023-07-20T10:54:52;5.95;;;3.63;;
23506;SDS011;11930;53.076;18.250;2023-07-20T10:57:29;23.10;;;11.40;;
23506;SDS011;11930;53.076;18.250;2023-07-20T11:00:09;8.77;;;7.03;;
23506;SDS011;11930;53.076;18.250;2023-07-20T11:02:50;9.75;;;4.78;;
23506;SDS011;11930;53.076;18.250;2023-07-20T11:05:38;11.23;;;7.45;;
23506;SDS011;11930;53.076;18.250;2023-07-20T11:08:08;5.25;;;3.80;;
23506;SDS011;11930;53.076;18.250;2023-07-20T11:10:36;7.07;;;3.10;;
23506;SDS011;11930;53.076;18.250;2023-07-20T11:13:18;6.53;;;2.75;;
23506;SDS011;11930;53.076;18.250;2023-07-20T11:16:01;16.40;;;12.32;;
23506;SDS011;11930;53.076;18.250;2023-07-20T11:18:34;4.40;;;3.10;;
23506;SDS011;11930;53.076;18.250;2023-07-20T11:21:06;11.80;;;6.68;;
23506;SDS011;11930;53.076;18.250;2023-07-20T11:23:34;6.03;;;2.63;;
23506;SDS011;11930;53.076;18.250;2023-07-20T11:26:06;23.83;;;15.32;;
23506;SDS011;11930;53.076;18.250;2023-07-20T11:28:32;11.93;;;8.13;;
23506;SDS011;11930;53.076;18.250;2023-07-20T11:31:02;3.40;;;3.10;;
23506;SDS011;11930;53.076;18.250;2023-07-20T11:33:34;3.40;;;1.58;;
23506;SDS011;11930;53.076;18.250;2023-07-20T11:36:02;11.00;;;5.32;;
23506;SDS011;11930;53.076;18.250;2023-07-20T11:38:28;8.70;;;6.63;;
23506;SDS011;11930;53.076;18.250;2023-07-20T11:40:55;6.10;;;4.13;;
23506;SDS011;11930;53.076;18.250;2023-07-20T11:43:27;2.20;;;1.33;;
23506;SDS011;11930;53.076;18.250;2023-07-20T11:45:55;2.85;;;1.10;;
23506;SDS011;11930;53.076;18.250;2023-07-20T11:48:54;2.88;;;1.45;;
23506;SDS011;11930;53.076;18.250;2023-07-20T11:51:22;2.72;;;1.00;;
23506;SDS011;11930;53.076;18.250;2023-07-20T11:53:50;2.22;;;1.10;;
23506;SDS011;11930;53.076;18.250;2023-07-20T11:56:19;1.73;;;1.00;;
23506;SDS011;11930;53.076;18.250;2023-07-20T11:58:45;1.05;;;0.80;;
23506;SDS011;11930;53.076;18.250;2023-07-20T12:01:13;2.00;;;0.93;;
23506;SDS011;11930;53.076;18.250;2023-07-20T12:03:39;4.10;;;2.05;;
23506;SDS011;11930;53.076;18.250;2023-07-20T12:06:09;4.95;;;2.05;;
23506;SDS011;11930;53.076;18.250;2023-07-20T12:08:53;3.78;;;1.20;;
23506;SDS011;11930;53.076;18.250;2023-07-20T12:11:35;5.38;;;1.08;;
23506;SDS011;11930;53.076;18.250;2023-07-20T12:14:11;2.38;;;0.90;;
23506;SDS011;11930;53.076;18.250;2023-07-20T12:16:40;2.15;;;0.70;;
23506;SDS011;11930;53.076;18.250;2023-07-20T12:19:10;1.77;;;1.02;;
23506;SDS011;11930;53.076;18.250;2023-07-20T12:21:41;5.18;;;1.15;;
23506;SDS011;11930;53.076;18.250;2023-07-20T12:24:11;5.22;;;1.00;;
23506;SDS011;11930;53.076;18.250;2023-07-20T12:26:55;1.98;;;0.80;;
23506;SDS011;11930;53.076;18.250;2023-07-20T12:29:24;2.47;;;0.80;;
23506;SDS011;11930;53.076;18.250;2023-07-20T12:31:52;2.58;;;0.70;;
23506;SDS011;11930;53.076;18.250;2023-07-20T12:34:28;1.98;;;0.80;;
23506;SDS011;11930;53.076;18.250;2023-07-20T12:36:54;2.45;;;0.80;;
23506;SDS011;11930;53.076;18.250;2023-07-20T12:39:20;2.20;;;0.70;;
23506;SDS011;11930;53.076;18.250;2023-07-20T12:41:47;1.90;;;0.70;;
23506;SDS011;11930;53.076;18.250;2023-07-20T12:44:13;4.40;;;0.90;;
23506;SDS011;11930;53.076;18.250;2023-07-20T12:46:43;2.22;;;0.80;;
23506;SDS011;11930;53.076;18.250;2023-07-20T12:49:09;3.50;;;1.10;;
23506;SDS011;11930;53.076;18.250;2023-07-20T12:51:37;4.22;;;0.90;;
23506;SDS011;11930;53.076;18.250;2023-07-20T12:54:04;3.08;;;0.80;;
23506;SDS011;11930;53.076;18.250;2023-07-20T12:56:30;1.73;;;0.82;;
23506;SDS011;11930;53.076;18.250;2023-07-20T12:58:56;2.50;;;0.88;;
23506;SDS011;11930;53.076;18.250;2023-07-20T13:01:28;1.90;;;0.60;;
23506;SDS011;11930;53.076;18.250;2023-07-20T13:03:56;1.67;;;0.73;;
23506;SDS011;11930;53.076;18.250;2023-07-20T13:06:25;2.03;;;0.57;;
23506;SDS011;11930;53.076;18.250;2023-07-20T13:08:52;1.45;;;0.73;;
23506;SDS011;11930;53.076;18.250;2023-07-20T13:11:22;1.42;;;0.70;;
23506;SDS011;11930;53.076;18.250;2023-07-20T13:13:48;0.77;;;0.57;;
23506;SDS011;11930;53.076;18.250;2023-07-20T13:16:17;0.85;;;0.65;;
23506;SDS011;11930;53.076;18.250;2023-07-20T13:18:43;1.50;;;0.70;;
23506;SDS011;11930;53.076;18.250;2023-07-20T13:21:19;1.67;;;0.90;;
23506;SDS011;11930;53.076;18.250;2023-07-20T13:24:05;1.65;;;0.70;;
23506;SDS011;11930;53.076;18.250;2023-07-20T13:26:32;1.52;;;0.80;;
23506;SDS011;11930;53.076;18.250;2023-07-20T13:28:58;3.13;;;1.00;;
23506;SDS011;11930;53.076;18.250;2023-07-20T13:31:28;1.42;;;0.80;;
23506;SDS011;11930;53.076;18.250;2023-07-20T13:33:54;1.27;;;0.80;;
23506;SDS011;11930;53.076;18.250;2023-07-20T13:36:25;2.58;;;0.90;;
23506;SDS011;11930;53.076;18.250;2023-07-20T13:38:52;2.22;;;0.90;;
23506;SDS011;11930;53.076;18.250;2023-07-20T13:41:18;2.58;;;1.73;;
23506;SDS011;11930;53.076;18.250;2023-07-20T13:43:46;4.57;;;2.80;;
23506;SDS011;11930;53.076;18.250;2023-07-20T13:46:16;4.22;;;1.95;;
23506;SDS011;11930;53.076;18.250;2023-07-20T13:48:42;2.60;;;0.98;;
23506;SDS011;11930;53.076;18.250;2023-07-20T13:51:11;1.17;;;0.82;;
23506;SDS011;11930;53.076;18.250;2023-07-20T13:53:37;2.72;;;0.90;;
23506;SDS011;11930;53.076;18.250;2023-07-20T13:56:04;1.63;;;0.73;;
23506;SDS011;11930;53.076;18.250;2023-07-20T13:58:30;1.40;;;0.90;;
23506;SDS011;11930;53.076;18.250;2023-07-20T14:00:57;1.15;;;0.80;;
23506;SDS011;11930;53.076;18.250;2023-07-20T14:03:23;1.48;;;0.80;;
23506;SDS011;11930;53.076;18.250;2023-07-20T14:05:49;1.65;;;0.88;;
23506;SDS011;11930;53.076;18.250;2023-07-20T14:08:15;3.40;;;0.80;;
23506;SDS011;11930;53.076;18.250;2023-07-20T14:10:42;1.65;;;0.80;;
23506;SDS011;11930;53.076;18.250;2023-07-20T14:13:09;2.13;;;0.80;;
23506;SDS011;11930;53.076;18.250;2023-07-20T14:15:35;1.35;;;0.73;;
23506;SDS011;11930;53.076;18.250;2023-07-20T14:18:01;3.60;;;1.05;;
23506;SDS011;11930;53.076;18.250;2023-07-20T14:20:27;1.23;;;0.70;;
23506;SDS011;11930;53.076;18.250;2023-07-20T14:22:54;1.23;;;0.80;;
23506;SDS011;11930;53.076;18.250;2023-07-20T14:25:20;1.20;;;0.60;;
23506;SDS011;11930;53.076;18.250;2023-07-20T14:27:46;5.38;;;0.95;;
23506;SDS011;11930;53.076;18.250;2023-07-20T14:30:13;1.02;;;0.60;;
23506;SDS011;11930;53.076;18.250;2023-07-20T14:32:40;0.82;;;0.60;;
23506;SDS011;11930;53.076;18.250;2023-07-20T14:35:06;0.60;;;0.60;;
23506;SDS011;11930;53.076;18.250;2023-07-20T14:37:32;0.88;;;0.60;;
23506;SDS011;11930;53.076;18.250;2023-07-20T14:39:59;0.90;;;0.60;;
23506;SDS011;11930;53.076;18.250;2023-07-20T14:42:26;2.13;;;0.60;;
23506;SDS011;11930;53.076;18.250;2023-07-20T14:44:53;1.05;;;0.60;;
23506;SDS011;11930;53.076;18.250;2023-07-20T14:47:19;23.13;;;16.08;;